sensor_id;sensor_type;location;lat;lon;timestamp;temperature;humidity
20284;DHT22;10301;50.832;4.080;2022-10-15T00:01:39;15.40;93.20
20284;DHT22;10301;50.832;4.080;2022-10-15T00:04:05;15.30;94.30
20284;DHT22;10301;50.832;4.080;2022-10-15T00:06:31;15.30;94.60
20284;DHT22;10301;50.832;4.080;2022-10-15T00:08:56;15.40;93.70
20284;DHT22;10301;50.832;4.080;2022-10-15T00:11:24;15.40;93.20
20284;DHT22;10301;50.832;4.080;2022-10-15T00:13:53;15.50;91.70
20284;DHT22;10301;50.832;4.080;2022-10-15T00:16:21;15.60;90.30
20284;DHT22;10301;50.832;4.080;2022-10-15T00:18:47;15.50;90.50
20284;DHT22;10301;50.832;4.080;2022-10-15T00:21:15;15.60;90.50
20284;DHT22;10301;50.832;4.080;2022-10-15T00:23:42;15.60;88.60
20284;DHT22;10301;50.832;4.080;2022-10-15T00:26:21;15.60;89.70
20284;DHT22;10301;50.832;4.080;2022-10-15T00:28:49;15.50;90.30
20284;DHT22;10301;50.832;4.080;2022-10-15T00:31:16;15.50;90.50
20284;DHT22;10301;50.832;4.080;2022-10-15T00:33:43;15.60;91.50
20284;DHT22;10301;50.832;4.080;2022-10-15T00:36:13;15.60;90.00
20284;DHT22;10301;50.832;4.080;2022-10-15T00:38:40;15.70;88.80
20284;DHT22;10301;50.832;4.080;2022-10-15T00:41:07;15.80;85.40
20284;DHT22;10301;50.832;4.080;2022-10-15T00:46:04;15.80;82.40
20284;DHT22;10301;50.832;4.080;2022-10-15T00:48:31;15.50;82.80
20284;DHT22;10301;50.832;4.080;2022-10-15T00:51:00;15.40;88.00
20284;DHT22;10301;50.832;4.080;2022-10-15T00:53:28;15.40;90.90
20284;DHT22;10301;50.832;4.080;2022-10-15T00:55:54;15.50;90.50
20284;DHT22;10301;50.832;4.080;2022-10-15T00:58:20;15.50;87.10
20284;DHT22;10301;50.832;4.080;2022-10-15T01:00:53;15.20;92.00
20284;DHT22;10301;50.832;4.080;2022-10-15T01:03:19;15.30;92.60
20284;DHT22;10301;50.832;4.080;2022-10-15T01:05:47;15.40;91.10
20284;DHT22;10301;50.832;4.080;2022-10-15T01:08:13;15.40;91.30
20284;DHT22;10301;50.832;4.080;2022-10-15T01:11:04;15.40;91.30
20284;DHT22;10301;50.832;4.080;2022-10-15T01:16:15;15.30;90.30
20284;DHT22;10301;50.832;4.080;2022-10-15T01:18:53;15.40;87.60
20284;DHT22;10301;50.832;4.080;2022-10-15T01:40:25;15.00;94.90
20284;DHT22;10301;50.832;4.080;2022-10-15T01:43:00;14.70;95.90
20284;DHT22;10301;50.832;4.080;2022-10-15T01:45:35;14.50;97.00
20284;DHT22;10301;50.832;4.080;2022-10-15T01:48:05;14.50;98.20
20284;DHT22;10301;50.832;4.080;2022-10-15T01:50:33;14.50;97.80
20284;DHT22;10301;50.832;4.080;2022-10-15T01:53:02;14.50;97.70
20284;DHT22;10301;50.832;4.080;2022-10-15T01:55:29;14.50;98.10
20284;DHT22;10301;50.832;4.080;2022-10-15T01:57:57;14.60;98.00
20284;DHT22;10301;50.832;4.080;2022-10-15T02:00:23;14.50;98.50
20284;DHT22;10301;50.832;4.080;2022-10-15T02:02:49;14.70;98.50
20284;DHT22;10301;50.832;4.080;2022-10-15T02:05:20;14.70;97.60
20284;DHT22;10301;50.832;4.080;2022-10-15T02:10:27;14.90;96.40
20284;DHT22;10301;50.832;4.080;2022-10-15T02:13:07;14.90;96.40
20284;DHT22;10301;50.832;4.080;2022-10-15T02:18:35;14.70;97.00
20284;DHT22;10301;50.832;4.080;2022-10-15T02:21:11;14.70;98.00
20284;DHT22;10301;50.832;4.080;2022-10-15T02:24:14;14.70;96.70
20284;DHT22;10301;50.832;4.080;2022-10-15T02:26:42;14.70;98.00
20284;DHT22;10301;50.832;4.080;2022-10-15T02:29:11;14.80;97.80
20284;DHT22;10301;50.832;4.080;2022-10-15T02:31:40;14.80;96.00
20284;DHT22;10301;50.832;4.080;2022-10-15T02:34:10;14.70;96.90
20284;DHT22;10301;50.832;4.080;2022-10-15T02:36:41;14.70;96.90
20284;DHT22;10301;50.832;4.080;2022-10-15T02:39:10;14.60;97.40
20284;DHT22;10301;50.832;4.080;2022-10-15T02:41:37;14.50;98.60
20284;DHT22;10301;50.832;4.080;2022-10-15T02:44:04;14.60;98.30
20284;DHT22;10301;50.832;4.080;2022-10-15T02:46:30;14.50;98.20
20284;DHT22;10301;50.832;4.080;2022-10-15T02:48:56;14.50;98.70
20284;DHT22;10301;50.832;4.080;2022-10-15T02:51:22;14.70;98.90
20284;DHT22;10301;50.832;4.080;2022-10-15T02:53:47;14.70;98.40
20284;DHT22;10301;50.832;4.080;2022-10-15T02:56:13;14.80;96.80
20284;DHT22;10301;50.832;4.080;2022-10-15T02:58:38;14.70;96.80
20284;DHT22;10301;50.832;4.080;2022-10-15T03:01:04;14.70;97.00
20284;DHT22;10301;50.832;4.080;2022-10-15T03:03:30;14.80;96.40
20284;DHT22;10301;50.832;4.080;2022-10-15T03:05:55;14.90;96.50
20284;DHT22;10301;50.832;4.080;2022-10-15T03:08:21;14.80;95.50
20284;DHT22;10301;50.832;4.080;2022-10-15T03:10:46;14.70;95.70
20284;DHT22;10301;50.832;4.080;2022-10-15T03:13:12;14.80;96.00
20284;DHT22;10301;50.832;4.080;2022-10-15T03:15:38;14.80;94.80
20284;DHT22;10301;50.832;4.080;2022-10-15T03:18:04;14.70;94.70
20284;DHT22;10301;50.832;4.080;2022-10-15T03:20:30;14.60;95.10
20284;DHT22;10301;50.832;4.080;2022-10-15T03:22:56;14.60;95.20
20284;DHT22;10301;50.832;4.080;2022-10-15T03:25:21;14.60;95.70
20284;DHT22;10301;50.832;4.080;2022-10-15T03:27:47;14.50;95.50
20284;DHT22;10301;50.832;4.080;2022-10-15T03:30:13;14.40;96.00
20284;DHT22;10301;50.832;4.080;2022-10-15T03:32:38;14.30;96.50
20284;DHT22;10301;50.832;4.080;2022-10-15T03:35:04;14.30;97.40
20284;DHT22;10301;50.832;4.080;2022-10-15T03:37:30;14.20;97.70
20284;DHT22;10301;50.832;4.080;2022-10-15T03:39:56;14.30;98.40
20284;DHT22;10301;50.832;4.080;2022-10-15T03:42:21;14.40;97.00
20284;DHT22;10301;50.832;4.080;2022-10-15T03:44:47;14.30;96.60
20284;DHT22;10301;50.832;4.080;2022-10-15T03:47:13;14.30;96.10
20284;DHT22;10301;50.832;4.080;2022-10-15T03:49:38;14.30;96.00
20284;DHT22;10301;50.832;4.080;2022-10-15T03:52:04;14.10;96.70
20284;DHT22;10301;50.832;4.080;2022-10-15T03:54:30;14.00;97.70
20284;DHT22;10301;50.832;4.080;2022-10-15T03:56:55;13.90;97.90
20284;DHT22;10301;50.832;4.080;2022-10-15T03:59:21;13.70;98.70
20284;DHT22;10301;50.832;4.080;2022-10-15T04:01:47;13.70;99.70
20284;DHT22;10301;50.832;4.080;2022-10-15T04:04:12;13.70;99.60
20284;DHT22;10301;50.832;4.080;2022-10-15T04:06:38;13.60;99.90
20284;DHT22;10301;50.832;4.080;2022-10-15T04:09:04;13.70;99.90
20284;DHT22;10301;50.832;4.080;2022-10-15T04:11:30;13.60;99.90
20284;DHT22;10301;50.832;4.080;2022-10-15T04:13:56;13.60;99.90
20284;DHT22;10301;50.832;4.080;2022-10-15T04:16:21;13.50;99.90
20284;DHT22;10301;50.832;4.080;2022-10-15T04:18:47;13.50;99.90
20284;DHT22;10301;50.832;4.080;2022-10-15T04:21:13;13.40;99.90
20284;DHT22;10301;50.832;4.080;2022-10-15T04:23:39;13.50;99.90
20284;DHT22;10301;50.832;4.080;2022-10-15T04:26:05;13.40;99.90
20284;DHT22;10301;50.832;4.080;2022-10-15T04:28:31;13.50;99.90
20284;DHT22;10301;50.832;4.080;2022-10-15T04:30:58;13.50;99.90
20284;DHT22;10301;50.832;4.080;2022-10-15T04:33:24;13.50;99.90
20284;DHT22;10301;50.832;4.080;2022-10-15T04:36:07;13.50;99.90
20284;DHT22;10301;50.832;4.080;2022-10-15T04:38:35;13.50;99.90
20284;DHT22;10301;50.832;4.080;2022-10-15T04:41:02;13.50;99.90
20284;DHT22;10301;50.832;4.080;2022-10-15T04:43:29;13.60;99.90
20284;DHT22;10301;50.832;4.080;2022-10-15T04:45:59;13.60;99.90
20284;DHT22;10301;50.832;4.080;2022-10-15T04:48:27;13.60;99.90
20284;DHT22;10301;50.832;4.080;2022-10-15T04:50:53;13.60;99.90
20284;DHT22;10301;50.832;4.080;2022-10-15T04:53:19;13.60;99.90
20284;DHT22;10301;50.832;4.080;2022-10-15T04:55:45;13.60;99.90
20284;DHT22;10301;50.832;4.080;2022-10-15T04:58:11;13.70;99.90
20284;DHT22;10301;50.832;4.080;2022-10-15T05:00:37;13.70;99.90
20284;DHT22;10301;50.832;4.080;2022-10-15T05:03:06;13.80;99.90
20284;DHT22;10301;50.832;4.080;2022-10-15T05:05:32;13.80;99.90
20284;DHT22;10301;50.832;4.080;2022-10-15T05:08:02;13.80;99.90
20284;DHT22;10301;50.832;4.080;2022-10-15T05:10:28;13.90;99.90
20284;DHT22;10301;50.832;4.080;2022-10-15T05:12:54;13.80;99.90
20284;DHT22;10301;50.832;4.080;2022-10-15T05:15:19;13.80;99.90
20284;DHT22;10301;50.832;4.080;2022-10-15T05:17:45;13.90;99.90
20284;DHT22;10301;50.832;4.080;2022-10-15T05:20:10;13.90;99.90
20284;DHT22;10301;50.832;4.080;2022-10-15T05:22:36;13.80;99.90
20284;DHT22;10301;50.832;4.080;2022-10-15T05:25:02;13.90;99.90
20284;DHT22;10301;50.832;4.080;2022-10-15T05:27:28;13.90;99.90
20284;DHT22;10301;50.832;4.080;2022-10-15T05:29:53;13.80;99.90
20284;DHT22;10301;50.832;4.080;2022-10-15T05:32:19;14.00;99.90
20284;DHT22;10301;50.832;4.080;2022-10-15T05:34:44;14.00;99.90
20284;DHT22;10301;50.832;4.080;2022-10-15T05:37:10;14.00;99.90
20284;DHT22;10301;50.832;4.080;2022-10-15T05:39:36;14.10;99.90
20284;DHT22;10301;50.832;4.080;2022-10-15T05:42:01;14.30;99.90
20284;DHT22;10301;50.832;4.080;2022-10-15T05:44:27;14.60;99.90
20284;DHT22;10301;50.832;4.080;2022-10-15T05:46:53;14.50;97.50
20284;DHT22;10301;50.832;4.080;2022-10-15T05:49:18;14.40;97.20
20284;DHT22;10301;50.832;4.080;2022-10-15T05:51:44;14.40;97.90
20284;DHT22;10301;50.832;4.080;2022-10-15T05:54:09;14.40;97.90
20284;DHT22;10301;50.832;4.080;2022-10-15T05:56:35;14.30;98.00
20284;DHT22;10301;50.832;4.080;2022-10-15T05:59:01;14.30;98.90
20284;DHT22;10301;50.832;4.080;2022-10-15T06:01:27;14.40;99.00
20284;DHT22;10301;50.832;4.080;2022-10-15T06:03:53;14.70;99.30
20284;DHT22;10301;50.832;4.080;2022-10-15T06:06:23;14.70;97.60
20284;DHT22;10301;50.832;4.080;2022-10-15T06:08:50;14.80;97.10
20284;DHT22;10301;50.832;4.080;2022-10-15T06:11:16;15.00;96.20
20284;DHT22;10301;50.832;4.080;2022-10-15T06:13:43;15.00;93.50
20284;DHT22;10301;50.832;4.080;2022-10-15T06:16:10;15.30;92.00
20284;DHT22;10301;50.832;4.080;2022-10-15T06:18:36;15.30;89.70
20284;DHT22;10301;50.832;4.080;2022-10-15T06:21:04;15.40;90.20
20284;DHT22;10301;50.832;4.080;2022-10-15T06:23:30;15.40;88.40
20284;DHT22;10301;50.832;4.080;2022-10-15T06:25:55;15.60;81.80
20284;DHT22;10301;50.832;4.080;2022-10-15T06:28:21;15.30;86.70
20284;DHT22;10301;50.832;4.080;2022-10-15T06:30:49;15.20;91.00
20284;DHT22;10301;50.832;4.080;2022-10-15T06:33:15;15.40;90.90
20284;DHT22;10301;50.832;4.080;2022-10-15T06:35:41;15.40;90.30
20284;DHT22;10301;50.832;4.080;2022-10-15T06:38:07;15.60;86.70
20284;DHT22;10301;50.832;4.080;2022-10-15T06:40:32;15.70;81.80
20284;DHT22;10301;50.832;4.080;2022-10-15T06:43:06;15.70;81.30
20284;DHT22;10301;50.832;4.080;2022-10-15T06:45:36;15.80;79.30
20284;DHT22;10301;50.832;4.080;2022-10-15T06:48:04;15.60;80.20
20284;DHT22;10301;50.832;4.080;2022-10-15T06:50:31;15.70;83.90
20284;DHT22;10301;50.832;4.080;2022-10-15T06:52:56;15.80;81.10
20284;DHT22;10301;50.832;4.080;2022-10-15T06:55:22;15.60;84.70
20284;DHT22;10301;50.832;4.080;2022-10-15T06:57:48;15.90;80.30
20284;DHT22;10301;50.832;4.080;2022-10-15T07:00:15;15.60;83.50
20284;DHT22;10301;50.832;4.080;2022-10-15T07:02:40;15.70;87.80
20284;DHT22;10301;50.832;4.080;2022-10-15T07:05:06;15.80;81.90
20284;DHT22;10301;50.832;4.080;2022-10-15T07:07:32;16.00;80.80
20284;DHT22;10301;50.832;4.080;2022-10-15T07:09:58;16.00;78.30
20284;DHT22;10301;50.832;4.080;2022-10-15T07:12:24;16.00;81.30
20284;DHT22;10301;50.832;4.080;2022-10-15T07:14:49;16.00;80.30
20284;DHT22;10301;50.832;4.080;2022-10-15T07:17:15;16.10;79.60
20284;DHT22;10301;50.832;4.080;2022-10-15T07:19:41;16.20;78.50
20284;DHT22;10301;50.832;4.080;2022-10-15T07:22:08;16.40;73.30
20284;DHT22;10301;50.832;4.080;2022-10-15T07:24:34;16.40;71.50
20284;DHT22;10301;50.832;4.080;2022-10-15T07:27:00;16.20;75.00
20284;DHT22;10301;50.832;4.080;2022-10-15T07:29:25;16.30;75.20
20284;DHT22;10301;50.832;4.080;2022-10-15T07:31:51;16.20;77.50
20284;DHT22;10301;50.832;4.080;2022-10-15T07:34:16;16.20;79.40
20284;DHT22;10301;50.832;4.080;2022-10-15T07:36:42;16.20;78.70
20284;DHT22;10301;50.832;4.080;2022-10-15T07:39:08;16.20;83.00
20284;DHT22;10301;50.832;4.080;2022-10-15T07:41:34;16.10;85.10
20284;DHT22;10301;50.832;4.080;2022-10-15T07:44:00;16.10;87.10
20284;DHT22;10301;50.832;4.080;2022-10-15T07:46:26;16.10;84.90
20284;DHT22;10301;50.832;4.080;2022-10-15T07:48:51;16.20;87.40
20284;DHT22;10301;50.832;4.080;2022-10-15T07:51:17;16.30;88.20
20284;DHT22;10301;50.832;4.080;2022-10-15T07:53:43;16.30;88.80
20284;DHT22;10301;50.832;4.080;2022-10-15T07:56:11;16.50;83.70
20284;DHT22;10301;50.832;4.080;2022-10-15T07:58:37;16.50;86.40
20284;DHT22;10301;50.832;4.080;2022-10-15T08:01:05;16.50;87.30
20284;DHT22;10301;50.832;4.080;2022-10-15T08:03:31;16.40;90.00
20284;DHT22;10301;50.832;4.080;2022-10-15T08:05:59;16.60;82.80
20284;DHT22;10301;50.832;4.080;2022-10-15T08:08:25;16.30;86.60
20284;DHT22;10301;50.832;4.080;2022-10-15T08:10:51;16.30;90.50
20284;DHT22;10301;50.832;4.080;2022-10-15T08:13:16;16.30;93.70
20284;DHT22;10301;50.832;4.080;2022-10-15T08:15:42;16.30;93.80
20284;DHT22;10301;50.832;4.080;2022-10-15T08:18:08;16.50;91.90
20284;DHT22;10301;50.832;4.080;2022-10-15T08:20:37;16.40;93.20
20284;DHT22;10301;50.832;4.080;2022-10-15T08:23:03;16.30;93.40
20284;DHT22;10301;50.832;4.080;2022-10-15T08:25:29;16.30;95.80
20284;DHT22;10301;50.832;4.080;2022-10-15T08:27:56;16.30;96.00
20284;DHT22;10301;50.832;4.080;2022-10-15T08:30:22;16.20;95.20
20284;DHT22;10301;50.832;4.080;2022-10-15T08:32:48;16.30;97.00
20284;DHT22;10301;50.832;4.080;2022-10-15T08:35:13;16.10;97.50
20284;DHT22;10301;50.832;4.080;2022-10-15T08:37:39;16.30;96.70
20284;DHT22;10301;50.832;4.080;2022-10-15T08:40:05;16.20;95.80
20284;DHT22;10301;50.832;4.080;2022-10-15T08:42:40;16.10;98.40
20284;DHT22;10301;50.832;4.080;2022-10-15T08:45:16;16.10;98.80
20284;DHT22;10301;50.832;4.080;2022-10-15T08:47:49;16.20;98.20
20284;DHT22;10301;50.832;4.080;2022-10-15T08:53:03;16.10;99.80
20284;DHT22;10301;50.832;4.080;2022-10-15T08:55:34;16.10;99.90
20284;DHT22;10301;50.832;4.080;2022-10-15T09:01:02;16.20;99.90
20284;DHT22;10301;50.832;4.080;2022-10-15T09:14:04;16.20;99.90
20284;DHT22;10301;50.832;4.080;2022-10-15T09:16:36;16.30;99.90
20284;DHT22;10301;50.832;4.080;2022-10-15T09:19:09;16.50;99.90
20284;DHT22;10301;50.832;4.080;2022-10-15T09:21:36;16.60;99.90
20284;DHT22;10301;50.832;4.080;2022-10-15T09:24:03;16.60;99.90
20284;DHT22;10301;50.832;4.080;2022-10-15T09:29:21;16.90;99.90
20284;DHT22;10301;50.832;4.080;2022-10-15T09:32:11;17.00;99.10
20284;DHT22;10301;50.832;4.080;2022-10-15T09:37:26;17.20;98.70
20284;DHT22;10301;50.832;4.080;2022-10-15T09:42:35;17.20;99.90
20284;DHT22;10301;50.832;4.080;2022-10-15T09:45:09;17.10;99.90
20284;DHT22;10301;50.832;4.080;2022-10-15T09:47:37;17.20;99.90
20284;DHT22;10301;50.832;4.080;2022-10-15T09:50:05;17.30;99.90
20284;DHT22;10301;50.832;4.080;2022-10-15T09:58:15;17.50;99.80
20284;DHT22;10301;50.832;4.080;2022-10-15T10:01:04;17.40;99.90
20284;DHT22;10301;50.832;4.080;2022-10-15T10:03:36;17.40;99.90
20284;DHT22;10301;50.832;4.080;2022-10-15T10:06:05;17.50;99.90
20284;DHT22;10301;50.832;4.080;2022-10-15T10:08:46;17.70;99.90
20284;DHT22;10301;50.832;4.080;2022-10-15T10:11:13;17.80;98.80
20284;DHT22;10301;50.832;4.080;2022-10-15T10:16:15;17.90;96.70
20284;DHT22;10301;50.832;4.080;2022-10-15T10:18:42;17.90;96.70
20284;DHT22;10301;50.832;4.080;2022-10-15T10:21:24;17.90;97.40
20284;DHT22;10301;50.832;4.080;2022-10-15T10:23:52;18.10;96.40
20284;DHT22;10301;50.832;4.080;2022-10-15T10:26:19;18.20;94.40
20284;DHT22;10301;50.832;4.080;2022-10-15T10:28:53;18.20;94.40
20284;DHT22;10301;50.832;4.080;2022-10-15T10:31:31;18.20;94.90
20284;DHT22;10301;50.832;4.080;2022-10-15T10:34:01;18.20;93.40
20284;DHT22;10301;50.832;4.080;2022-10-15T10:36:30;18.30;94.90
20284;DHT22;10301;50.832;4.080;2022-10-15T10:39:24;18.50;93.10
20284;DHT22;10301;50.832;4.080;2022-10-15T10:41:54;18.70;91.40
20284;DHT22;10301;50.832;4.080;2022-10-15T10:44:30;18.80;90.00
20284;DHT22;10301;50.832;4.080;2022-10-15T10:49:43;19.60;80.00
20284;DHT22;10301;50.832;4.080;2022-10-15T10:52:27;19.60;73.60
20284;DHT22;10301;50.832;4.080;2022-10-15T10:55:19;19.40;76.60
20284;DHT22;10301;50.832;4.080;2022-10-15T10:57:52;19.30;75.90
20284;DHT22;10301;50.832;4.080;2022-10-15T11:00:39;19.20;81.00
20284;DHT22;10301;50.832;4.080;2022-10-15T11:03:19;19.20;81.00
20284;DHT22;10301;50.832;4.080;2022-10-15T11:05:46;18.90;84.70
20284;DHT22;10301;50.832;4.080;2022-10-15T11:14:11;19.10;76.20
20284;DHT22;10301;50.832;4.080;2022-10-15T11:20:05;19.50;66.50
20284;DHT22;10301;50.832;4.080;2022-10-15T11:25:33;20.10;50.20
20284;DHT22;10301;50.832;4.080;2022-10-15T11:39:18;20.00;47.50
20284;DHT22;10301;50.832;4.080;2022-10-15T11:42:06;19.70;51.50
20284;DHT22;10301;50.832;4.080;2022-10-15T11:44:54;19.70;42.80
20284;DHT22;10301;50.832;4.080;2022-10-15T11:50:26;19.40;50.10
20284;DHT22;10301;50.832;4.080;2022-10-15T11:58:28;19.50;42.10
20284;DHT22;10301;50.832;4.080;2022-10-15T12:01:01;19.20;51.00
20284;DHT22;10301;50.832;4.080;2022-10-15T12:03:30;19.10;36.20
20284;DHT22;10301;50.832;4.080;2022-10-15T12:06:08;18.70;42.10
20284;DHT22;10301;50.832;4.080;2022-10-15T12:08:36;18.50;40.50
20284;DHT22;10301;50.832;4.080;2022-10-15T12:19:19;19.10;1.00
20284;DHT22;10301;50.832;4.080;2022-10-15T12:29:50;19.50;1.00
20284;DHT22;10301;50.832;4.080;2022-10-15T12:32:27;19.70;1.00
20284;DHT22;10301;50.832;4.080;2022-10-15T12:35:17;19.90;1.00
20284;DHT22;10301;50.832;4.080;2022-10-15T12:37:45;20.20;1.00
20284;DHT22;10301;50.832;4.080;2022-10-15T12:43:01;20.10;1.00
20284;DHT22;10301;50.832;4.080;2022-10-15T12:45:39;19.90;1.00
20284;DHT22;10301;50.832;4.080;2022-10-15T12:48:16;19.60;1.00
20284;DHT22;10301;50.832;4.080;2022-10-15T12:50:42;19.80;1.00
20284;DHT22;10301;50.832;4.080;2022-10-15T12:56:12;20.00;1.00
20284;DHT22;10301;50.832;4.080;2022-10-15T13:08:54;20.60;1.00
20284;DHT22;10301;50.832;4.080;2022-10-15T13:11:27;20.60;1.00
20284;DHT22;10301;50.832;4.080;2022-10-15T13:16:44;20.30;1.00
20284;DHT22;10301;50.832;4.080;2022-10-15T13:19:27;20.10;1.00
20284;DHT22;10301;50.832;4.080;2022-10-15T13:21:59;20.10;1.00
20284;DHT22;10301;50.832;4.080;2022-10-15T13:24:28;20.20;1.00
20284;DHT22;10301;50.832;4.080;2022-10-15T13:26:55;20.10;1.00
20284;DHT22;10301;50.832;4.080;2022-10-15T13:29:27;20.20;1.00
20284;DHT22;10301;50.832;4.080;2022-10-15T13:31:54;20.10;1.00
20284;DHT22;10301;50.832;4.080;2022-10-15T13:34:26;20.10;1.00
20284;DHT22;10301;50.832;4.080;2022-10-15T13:36:55;20.20;1.00
20284;DHT22;10301;50.832;4.080;2022-10-15T13:39:28;20.10;1.00
20284;DHT22;10301;50.832;4.080;2022-10-15T13:42:23;20.20;1.00
20284;DHT22;10301;50.832;4.080;2022-10-15T13:45:22;20.20;1.00
20284;DHT22;10301;50.832;4.080;2022-10-15T13:47:50;20.10;1.00
20284;DHT22;10301;50.832;4.080;2022-10-15T13:55:27;20.00;1.00
20284;DHT22;10301;50.832;4.080;2022-10-15T13:58:04;19.90;1.00
20284;DHT22;10301;50.832;4.080;2022-10-15T14:00:32;19.80;1.00
20284;DHT22;10301;50.832;4.080;2022-10-15T14:03:19;19.70;1.00
20284;DHT22;10301;50.832;4.080;2022-10-15T14:05:47;19.60;1.00
20284;DHT22;10301;50.832;4.080;2022-10-15T14:10:45;19.90;1.00
20284;DHT22;10301;50.832;4.080;2022-10-15T14:13:11;20.00;1.00
20284;DHT22;10301;50.832;4.080;2022-10-15T14:18:04;19.70;1.00
20284;DHT22;10301;50.832;4.080;2022-10-15T14:20:31;19.50;1.00
20284;DHT22;10301;50.832;4.080;2022-10-15T14:22:56;19.40;1.00
20284;DHT22;10301;50.832;4.080;2022-10-15T14:25:23;19.50;1.00
20284;DHT22;10301;50.832;4.080;2022-10-15T14:27:50;19.50;1.00
20284;DHT22;10301;50.832;4.080;2022-10-15T14:30:28;19.50;1.00
20284;DHT22;10301;50.832;4.080;2022-10-15T14:32:55;19.50;1.00
20284;DHT22;10301;50.832;4.080;2022-10-15T14:35:31;19.50;1.00
20284;DHT22;10301;50.832;4.080;2022-10-15T14:38:00;19.70;1.00
20284;DHT22;10301;50.832;4.080;2022-10-15T14:40:26;19.60;1.00
20284;DHT22;10301;50.832;4.080;2022-10-15T14:43:05;19.50;1.00
20284;DHT22;10301;50.832;4.080;2022-10-15T14:45:54;19.60;1.00
20284;DHT22;10301;50.832;4.080;2022-10-15T14:48:27;19.60;1.00
20284;DHT22;10301;50.832;4.080;2022-10-15T14:50:57;19.30;1.00
20284;DHT22;10301;50.832;4.080;2022-10-15T14:53:26;19.30;1.00
20284;DHT22;10301;50.832;4.080;2022-10-15T14:55:56;19.30;1.00
20284;DHT22;10301;50.832;4.080;2022-10-15T14:58:24;19.30;1.00
20284;DHT22;10301;50.832;4.080;2022-10-15T15:01:02;19.30;1.00
20284;DHT22;10301;50.832;4.080;2022-10-15T15:03:40;19.40;1.00
20284;DHT22;10301;50.832;4.080;2022-10-15T15:06:09;19.30;1.00
20284;DHT22;10301;50.832;4.080;2022-10-15T15:08:35;19.40;1.00
20284;DHT22;10301;50.832;4.080;2022-10-15T15:11:02;19.50;1.00
20284;DHT22;10301;50.832;4.080;2022-10-15T15:13:31;19.30;1.00
20284;DHT22;10301;50.832;4.080;2022-10-15T15:16:02;19.20;1.00
20284;DHT22;10301;50.832;4.080;2022-10-15T15:18:28;19.10;1.00
20284;DHT22;10301;50.832;4.080;2022-10-15T15:20:57;18.90;1.00
20284;DHT22;10301;50.832;4.080;2022-10-15T15:23:26;18.80;1.00
20284;DHT22;10301;50.832;4.080;2022-10-15T15:25:53;18.60;1.00
20284;DHT22;10301;50.832;4.080;2022-10-15T15:28:24;18.70;1.00
20284;DHT22;10301;50.832;4.080;2022-10-15T15:30:58;18.70;1.00
20284;DHT22;10301;50.832;4.080;2022-10-15T15:33:24;18.70;1.00
20284;DHT22;10301;50.832;4.080;2022-10-15T15:38:27;18.80;1.00
20284;DHT22;10301;50.832;4.080;2022-10-15T15:41:13;18.60;1.00
20284;DHT22;10301;50.832;4.080;2022-10-15T15:43:40;18.50;1.00
20284;DHT22;10301;50.832;4.080;2022-10-15T15:46:06;18.50;1.00
20284;DHT22;10301;50.832;4.080;2022-10-15T15:48:32;18.30;1.00
20284;DHT22;10301;50.832;4.080;2022-10-15T15:51:13;18.30;1.00
20284;DHT22;10301;50.832;4.080;2022-10-15T15:53:41;18.30;1.00
20284;DHT22;10301;50.832;4.080;2022-10-15T15:56:07;18.30;1.00
20284;DHT22;10301;50.832;4.080;2022-10-15T15:58:32;18.10;1.00
20284;DHT22;10301;50.832;4.080;2022-10-15T16:00:58;18.20;1.00
20284;DHT22;10301;50.832;4.080;2022-10-15T16:03:24;18.30;1.00
20284;DHT22;10301;50.832;4.080;2022-10-15T16:05:49;18.30;1.00
20284;DHT22;10301;50.832;4.080;2022-10-15T16:08:15;18.10;1.00
20284;DHT22;10301;50.832;4.080;2022-10-15T16:10:41;18.10;1.00
20284;DHT22;10301;50.832;4.080;2022-10-15T16:13:07;18.00;1.00
20284;DHT22;10301;50.832;4.080;2022-10-15T16:15:32;18.00;1.00
20284;DHT22;10301;50.832;4.080;2022-10-15T16:17:58;18.00;1.00
20284;DHT22;10301;50.832;4.080;2022-10-15T16:20:24;18.00;1.00
20284;DHT22;10301;50.832;4.080;2022-10-15T16:22:50;17.90;1.00
20284;DHT22;10301;50.832;4.080;2022-10-15T16:25:16;17.90;1.00
20284;DHT22;10301;50.832;4.080;2022-10-15T16:27:42;17.70;1.00
20284;DHT22;10301;50.832;4.080;2022-10-15T16:30:10;17.50;1.00
20284;DHT22;10301;50.832;4.080;2022-10-15T16:32:36;17.30;1.00
20284;DHT22;10301;50.832;4.080;2022-10-15T16:35:01;17.10;1.00
20284;DHT22;10301;50.832;4.080;2022-10-15T16:37:27;17.10;1.00
20284;DHT22;10301;50.832;4.080;2022-10-15T16:39:53;17.10;1.00
20284;DHT22;10301;50.832;4.080;2022-10-15T16:42:18;17.00;1.00
20284;DHT22;10301;50.832;4.080;2022-10-15T16:44:44;17.10;1.00
20284;DHT22;10301;50.832;4.080;2022-10-15T16:47:09;17.00;1.00
20284;DHT22;10301;50.832;4.080;2022-10-15T16:49:35;16.80;1.00
20284;DHT22;10301;50.832;4.080;2022-10-15T16:52:00;16.70;1.00
20284;DHT22;10301;50.832;4.080;2022-10-15T16:54:26;16.60;1.00
20284;DHT22;10301;50.832;4.080;2022-10-15T16:56:52;16.50;1.00
20284;DHT22;10301;50.832;4.080;2022-10-15T16:59:18;16.60;1.00
20284;DHT22;10301;50.832;4.080;2022-10-15T17:01:44;16.60;1.00
20284;DHT22;10301;50.832;4.080;2022-10-15T17:04:10;16.70;1.00
20284;DHT22;10301;50.832;4.080;2022-10-15T17:06:35;16.70;1.00
20284;DHT22;10301;50.832;4.080;2022-10-15T17:09:01;16.50;1.00
20284;DHT22;10301;50.832;4.080;2022-10-15T17:11:37;16.40;1.00
20284;DHT22;10301;50.832;4.080;2022-10-15T17:14:05;16.40;1.00
20284;DHT22;10301;50.832;4.080;2022-10-15T17:16:36;16.40;1.00
20284;DHT22;10301;50.832;4.080;2022-10-15T17:19:02;16.50;1.00
20284;DHT22;10301;50.832;4.080;2022-10-15T17:21:29;16.40;1.00
20284;DHT22;10301;50.832;4.080;2022-10-15T17:24:00;16.40;1.00
20284;DHT22;10301;50.832;4.080;2022-10-15T17:26:28;16.50;1.00
20284;DHT22;10301;50.832;4.080;2022-10-15T17:28:57;16.50;1.00
20284;DHT22;10301;50.832;4.080;2022-10-15T17:31:24;16.40;1.00
20284;DHT22;10301;50.832;4.080;2022-10-15T17:34:02;16.30;1.00
20284;DHT22;10301;50.832;4.080;2022-10-15T17:36:29;16.40;1.00
20284;DHT22;10301;50.832;4.080;2022-10-15T17:38:56;16.30;1.00
20284;DHT22;10301;50.832;4.080;2022-10-15T17:41:25;16.30;1.00
20284;DHT22;10301;50.832;4.080;2022-10-15T17:43:51;16.30;1.00
20284;DHT22;10301;50.832;4.080;2022-10-15T17:46:22;16.30;1.00
20284;DHT22;10301;50.832;4.080;2022-10-15T17:48:49;16.20;1.00
20284;DHT22;10301;50.832;4.080;2022-10-15T17:51:17;16.00;1.00
20284;DHT22;10301;50.832;4.080;2022-10-15T17:53:44;15.90;1.00
20284;DHT22;10301;50.832;4.080;2022-10-15T17:56:16;15.90;1.00
20284;DHT22;10301;50.832;4.080;2022-10-15T17:58:43;15.90;1.00
20284;DHT22;10301;50.832;4.080;2022-10-15T18:01:19;16.00;1.00
20284;DHT22;10301;50.832;4.080;2022-10-15T18:03:45;15.90;1.00
20284;DHT22;10301;50.832;4.080;2022-10-15T18:06:14;15.90;1.00
20284;DHT22;10301;50.832;4.080;2022-10-15T18:08:40;15.90;1.00
20284;DHT22;10301;50.832;4.080;2022-10-15T18:11:08;15.90;1.00